sensor_id;sensor_type;location;lat;lon;timestamp;P1;durP1;ratioP1;P2;durP2;ratioP2
5058;SDS011;2548;52.050;11.036;2023-09-19T00:00:22;5.57;;;1.00;;
5058;SDS011;2548;52.050;11.036;2023-09-19T00:02:53;0.80;;;0.70;;
5058;SDS011;2548;52.050;11.036;2023-09-19T00:05:29;1.93;;;0.80;;
5058;SDS011;2548;52.050;11.036;2023-09-19T00:08:15;0.70;;;0.70;;
5058;SDS011;2548;52.050;11.036;2023-09-19T00:10:49;1.10;;;1.07;;
5058;SDS011;2548;52.050;11.036;2023-09-19T00:13:17;3.03;;;1.10;;
5058;SDS011;2548;52.050;11.036;2023-09-19T00:15:47;2.30;;;1.27;;
5058;SDS011;2548;52.050;11.036;2023-09-19T00:18:15;2.90;;;0.90;;
5058;SDS011;2548;52.050;11.036;2023-09-19T00:20:44;1.52;;;1.05;;
5058;SDS011;2548;52.050;11.036;2023-09-19T00:23:17;4.63;;;0.60;;
5058;SDS011;2548;52.050;11.036;2023-09-19T00:25:47;1.20;;;0.95;;
5058;SDS011;2548;52.050;11.036;2023-09-19T00:28:17;1.93;;;0.87;;
5058;SDS011;2548;52.050;11.036;2023-09-19T00:30:45;3.60;;;0.70;;
5058;SDS011;2548;52.050;11.036;2023-09-19T00:33:18;1.43;;;0.90;;
5058;SDS011;2548;52.050;11.036;2023-09-19T00:35:48;1.97;;;0.90;;
5058;SDS011;2548;52.050;11.036;2023-09-19T00:38:19;3.78;;;1.52;;
5058;SDS011;2548;52.050;11.036;2023-09-19T00:40:50;0.70;;;0.70;;
5058;SDS011;2548;52.050;11.036;2023-09-19T00:43:22;1.20;;;0.90;;
5058;SDS011;2548;52.050;11.036;2023-09-19T00:45:51;2.47;;;0.73;;
5058;SDS011;2548;52.050;11.036;2023-09-19T00:48:20;0.93;;;0.93;;
5058;SDS011;2548;52.050;11.036;2023-09-19T00:50:47;3.47;;;1.07;;
5058;SDS011;2548;52.050;11.036;2023-09-19T00:53:22;1.43;;;0.80;;
5058;SDS011;2548;52.050;11.036;2023-09-19T00:55:54;0.90;;;0.77;;
5058;SDS011;2548;52.050;11.036;2023-09-19T00:58:23;4.07;;;1.20;;
5058;SDS011;2548;52.050;11.036;2023-09-19T01:00:54;0.80;;;0.70;;
5058;SDS011;2548;52.050;11.036;2023-09-19T01:03:21;1.87;;;1.03;;
5058;SDS011;2548;52.050;11.036;2023-09-19T01:05:52;1.55;;;0.82;;
5058;SDS011;2548;52.050;11.036;2023-09-19T01:08:20;3.37;;;1.03;;
5058;SDS011;2548;52.050;11.036;2023-09-19T01:10:59;3.67;;;0.60;;
5058;SDS011;2548;52.050;11.036;2023-09-19T01:13:41;1.73;;;1.05;;
5058;SDS011;2548;52.050;11.036;2023-09-19T01:16:28;1.30;;;1.20;;
5058;SDS011;2548;52.050;11.036;2023-09-19T01:22:42;2.40;;;1.33;;
5058;SDS011;2548;52.050;11.036;2023-09-19T01:25:28;4.22;;;0.75;;
5058;SDS011;2548;52.050;11.036;2023-09-19T01:28:24;2.07;;;0.87;;
5058;SDS011;2548;52.050;11.036;2023-09-19T01:31:10;3.13;;;0.83;;
5058;SDS011;2548;52.050;11.036;2023-09-19T01:33:55;2.70;;;1.10;;
5058;SDS011;2548;52.050;11.036;2023-09-19T01:36:25;2.10;;;1.53;;
5058;SDS011;2548;52.050;11.036;2023-09-19T01:38:57;2.25;;;1.10;;
5058;SDS011;2548;52.050;11.036;2023-09-19T01:44:40;0.90;;;0.80;;
5058;SDS011;2548;52.050;11.036;2023-09-19T01:47:26;1.02;;;0.93;;
5058;SDS011;2548;52.050;11.036;2023-09-19T01:49:59;0.93;;;0.93;;
5058;SDS011;2548;52.050;11.036;2023-09-19T01:52:36;4.53;;;1.40;;
5058;SDS011;2548;52.050;11.036;2023-09-19T01:55:09;3.90;;;1.27;;
5058;SDS011;2548;52.050;11.036;2023-09-19T01:57:47;1.93;;;1.30;;
5058;SDS011;2548;52.050;11.036;2023-09-19T02:00:19;3.10;;;1.60;;
5058;SDS011;2548;52.050;11.036;2023-09-19T02:02:50;1.33;;;1.13;;
5058;SDS011;2548;52.050;11.036;2023-09-19T02:05:24;2.03;;;1.10;;
5058;SDS011;2548;52.050;11.036;2023-09-19T02:07:53;4.73;;;1.33;;
5058;SDS011;2548;52.050;11.036;2023-09-19T02:10:24;1.67;;;1.30;;
5058;SDS011;2548;52.050;11.036;2023-09-19T02:12:52;3.60;;;1.75;;
5058;SDS011;2548;52.050;11.036;2023-09-19T02:15:26;1.27;;;1.17;;
5058;SDS011;2548;52.050;11.036;2023-09-19T02:17:56;1.53;;;1.37;;
5058;SDS011;2548;52.050;11.036;2023-09-19T02:20:25;1.53;;;1.43;;
5058;SDS011;2548;52.050;11.036;2023-09-19T02:22:52;4.80;;;1.90;;
5058;SDS011;2548;52.050;11.036;2023-09-19T02:25:20;1.65;;;1.55;;
5058;SDS011;2548;52.050;11.036;2023-09-19T02:27:47;2.63;;;1.70;;
5058;SDS011;2548;52.050;11.036;2023-09-19T02:30:17;1.70;;;1.50;;
5058;SDS011;2548;52.050;11.036;2023-09-19T02:32:46;2.13;;;1.60;;
5058;SDS011;2548;52.050;11.036;2023-09-19T02:35:16;1.85;;;1.73;;
5058;SDS011;2548;52.050;11.036;2023-09-19T02:37:45;3.03;;;1.20;;
5058;SDS011;2548;52.050;11.036;2023-09-19T02:40:13;2.00;;;1.80;;
5058;SDS011;2548;52.050;11.036;2023-09-19T02:42:45;5.07;;;2.50;;
5058;SDS011;2548;52.050;11.036;2023-09-19T02:45:14;2.10;;;2.00;;
5058;SDS011;2548;52.050;11.036;2023-09-19T02:47:44;5.43;;;1.90;;
5058;SDS011;2548;52.050;11.036;2023-09-19T02:50:12;8.77;;;1.90;;
5058;SDS011;2548;52.050;11.036;2023-09-19T02:52:43;4.10;;;2.28;;
5058;SDS011;2548;52.050;11.036;2023-09-19T02:55:13;2.80;;;2.10;;
5058;SDS011;2548;52.050;11.036;2023-09-19T02:57:45;3.70;;;2.13;;
5058;SDS011;2548;52.050;11.036;2023-09-19T03:00:13;4.63;;;1.93;;
5058;SDS011;2548;52.050;11.036;2023-09-19T03:02:41;2.90;;;1.90;;
5058;SDS011;2548;52.050;11.036;2023-09-19T03:05:10;2.38;;;2.10;;
5058;SDS011;2548;52.050;11.036;2023-09-19T03:07:38;4.20;;;2.27;;
5058;SDS011;2548;52.050;11.036;2023-09-19T03:10:10;8.43;;;1.90;;
5058;SDS011;2548;52.050;11.036;2023-09-19T03:12:38;5.67;;;1.80;;
5058;SDS011;2548;52.050;11.036;2023-09-19T03:15:06;2.23;;;1.83;;
5058;SDS011;2548;52.050;11.036;2023-09-19T03:17:35;1.97;;;1.87;;
5058;SDS011;2548;52.050;11.036;2023-09-19T03:20:03;4.63;;;2.07;;
5058;SDS011;2548;52.050;11.036;2023-09-19T03:22:34;5.87;;;2.37;;
5058;SDS011;2548;52.050;11.036;2023-09-19T03:25:02;3.15;;;2.10;;
5058;SDS011;2548;52.050;11.036;2023-09-19T03:27:36;3.13;;;2.43;;
5058;SDS011;2548;52.050;11.036;2023-09-19T03:30:05;2.23;;;2.03;;
5058;SDS011;2548;52.050;11.036;2023-09-19T03:32:35;3.50;;;2.38;;
5058;SDS011;2548;52.050;11.036;2023-09-19T03:35:03;4.78;;;3.08;;
5058;SDS011;2548;52.050;11.036;2023-09-19T03:37:32;3.28;;;2.50;;
5058;SDS011;2548;52.050;11.036;2023-09-19T03:39:59;3.13;;;2.13;;
5058;SDS011;2548;52.050;11.036;2023-09-19T03:42:31;2.00;;;1.90;;
5058;SDS011;2548;52.050;11.036;2023-09-19T03:45:04;3.42;;;2.35;;
5058;SDS011;2548;52.050;11.036;2023-09-19T03:47:33;2.30;;;2.20;;
5058;SDS011;2548;52.050;11.036;2023-09-19T03:50:02;3.10;;;1.80;;
5058;SDS011;2548;52.050;11.036;2023-09-19T03:52:29;5.63;;;2.27;;
5058;SDS011;2548;52.050;11.036;2023-09-19T03:54:57;3.13;;;2.38;;
5058;SDS011;2548;52.050;11.036;2023-09-19T03:57:25;2.75;;;2.55;;
5058;SDS011;2548;52.050;11.036;2023-09-19T03:59:53;3.40;;;2.33;;
5058;SDS011;2548;52.050;11.036;2023-09-19T04:02:22;2.25;;;1.90;;
5058;SDS011;2548;52.050;11.036;2023-09-19T04:04:51;2.20;;;2.10;;
5058;SDS011;2548;52.050;11.036;2023-09-19T04:07:18;5.23;;;2.03;;
5058;SDS011;2548;52.050;11.036;2023-09-19T04:09:48;2.38;;;1.88;;
5058;SDS011;2548;52.050;11.036;2023-09-19T04:12:15;2.42;;;2.20;;
5058;SDS011;2548;52.050;11.036;2023-09-19T04:14:44;6.85;;;2.85;;
5058;SDS011;2548;52.050;11.036;2023-09-19T04:17:12;7.32;;;2.25;;
5058;SDS011;2548;52.050;11.036;2023-09-19T04:19:41;5.65;;;2.83;;
5058;SDS011;2548;52.050;11.036;2023-09-19T04:22:08;6.83;;;2.30;;
5058;SDS011;2548;52.050;11.036;2023-09-19T04:24:37;9.30;;;2.30;;
5058;SDS011;2548;52.050;11.036;2023-09-19T04:27:04;2.50;;;2.30;;
5058;SDS011;2548;52.050;11.036;2023-09-19T04:29:32;2.05;;;1.95;;
5058;SDS011;2548;52.050;11.036;2023-09-19T04:32:00;4.13;;;2.55;;
5058;SDS011;2548;52.050;11.036;2023-09-19T04:34:30;6.40;;;3.10;;
5058;SDS011;2548;52.050;11.036;2023-09-19T04:37:01;2.85;;;2.15;;
5058;SDS011;2548;52.050;11.036;2023-09-19T04:39:29;2.10;;;2.00;;
5058;SDS011;2548;52.050;11.036;2023-09-19T04:41:56;2.90;;;2.70;;
5058;SDS011;2548;52.050;11.036;2023-09-19T04:44:24;3.05;;;2.85;;
5058;SDS011;2548;52.050;11.036;2023-09-19T04:46:51;3.50;;;3.15;;
5058;SDS011;2548;52.050;11.036;2023-09-19T04:49:19;4.82;;;2.30;;
5058;SDS011;2548;52.050;11.036;2023-09-19T04:51:46;3.03;;;2.30;;
5058;SDS011;2548;52.050;11.036;2023-09-19T04:54:15;3.08;;;2.60;;
5058;SDS011;2548;52.050;11.036;2023-09-19T04:56:43;3.28;;;2.95;;
5058;SDS011;2548;52.050;11.036;2023-09-19T04:59:11;5.18;;;2.47;;
5058;SDS011;2548;52.050;11.036;2023-09-19T05:01:38;3.63;;;2.23;;
5058;SDS011;2548;52.050;11.036;2023-09-19T05:04:05;6.53;;;3.08;;
5058;SDS011;2548;52.050;11.036;2023-09-19T05:06:32;4.10;;;2.30;;
5058;SDS011;2548;52.050;11.036;2023-09-19T05:09:01;7.43;;;2.35;;
5058;SDS011;2548;52.050;11.036;2023-09-19T05:11:32;2.38;;;2.10;;
5058;SDS011;2548;52.050;11.036;2023-09-19T05:13:59;7.90;;;2.35;;
5058;SDS011;2548;52.050;11.036;2023-09-19T05:16:29;4.45;;;2.20;;
5058;SDS011;2548;52.050;11.036;2023-09-19T05:18:57;10.00;;;2.80;;
5058;SDS011;2548;52.050;11.036;2023-09-19T05:21:25;6.45;;;2.47;;
5058;SDS011;2548;52.050;11.036;2023-09-19T05:23:54;2.10;;;1.90;;
5058;SDS011;2548;52.050;11.036;2023-09-19T05:26:22;9.73;;;2.87;;
5058;SDS011;2548;52.050;11.036;2023-09-19T05:28:51;9.10;;;3.35;;
5058;SDS011;2548;52.050;11.036;2023-09-19T05:31:18;9.00;;;3.25;;
5058;SDS011;2548;52.050;11.036;2023-09-19T05:33:46;3.65;;;2.10;;
5058;SDS011;2548;52.050;11.036;2023-09-19T05:36:13;12.50;;;2.60;;
5058;SDS011;2548;52.050;11.036;2023-09-19T05:38:43;7.03;;;2.55;;
5058;SDS011;2548;52.050;11.036;2023-09-19T05:41:11;2.67;;;2.40;;
5058;SDS011;2548;52.050;11.036;2023-09-19T05:43:39;5.85;;;3.38;;
5058;SDS011;2548;52.050;11.036;2023-09-19T05:46:08;7.18;;;2.58;;
5058;SDS011;2548;52.050;11.036;2023-09-19T05:48:36;8.07;;;2.22;;
5058;SDS011;2548;52.050;11.036;2023-09-19T05:51:05;4.68;;;2.58;;
5058;SDS011;2548;52.050;11.036;2023-09-19T05:53:32;10.93;;;2.67;;
5058;SDS011;2548;52.050;11.036;2023-09-19T05:56:00;4.75;;;2.88;;
5058;SDS011;2548;52.050;11.036;2023-09-19T05:58:27;6.85;;;3.10;;
5058;SDS011;2548;52.050;11.036;2023-09-19T06:00:55;6.00;;;2.70;;
5058;SDS011;2548;52.050;11.036;2023-09-19T06:03:24;6.32;;;2.80;;
5058;SDS011;2548;52.050;11.036;2023-09-19T06:05:52;3.72;;;2.55;;
5058;SDS011;2548;52.050;11.036;2023-09-19T06:08:23;8.35;;;2.60;;
5058;SDS011;2548;52.050;11.036;2023-09-19T06:10:51;3.43;;;2.33;;
5058;SDS011;2548;52.050;11.036;2023-09-19T06:13:19;5.15;;;2.60;;
5058;SDS011;2548;52.050;11.036;2023-09-19T06:15:46;8.45;;;3.70;;
5058;SDS011;2548;52.050;11.036;2023-09-19T06:18:15;7.28;;;2.67;;
5058;SDS011;2548;52.050;11.036;2023-09-19T06:20:47;6.82;;;2.58;;
5058;SDS011;2548;52.050;11.036;2023-09-19T06:23:16;4.32;;;2.88;;
5058;SDS011;2548;52.050;11.036;2023-09-19T06:25:45;6.63;;;2.60;;
5058;SDS011;2548;52.050;11.036;2023-09-19T06:28:14;6.55;;;2.83;;
5058;SDS011;2548;52.050;11.036;2023-09-19T06:30:44;6.60;;;2.92;;
5058;SDS011;2548;52.050;11.036;2023-09-19T06:33:12;2.67;;;2.47;;
5058;SDS011;2548;52.050;11.036;2023-09-19T06:35:39;5.30;;;2.10;;
5058;SDS011;2548;52.050;11.036;2023-09-19T06:38:08;6.38;;;2.67;;
5058;SDS011;2548;52.050;11.036;2023-09-19T06:40:38;8.07;;;2.72;;
5058;SDS011;2548;52.050;11.036;2023-09-19T06:43:09;4.45;;;2.25;;
5058;SDS011;2548;52.050;11.036;2023-09-19T06:45:37;5.63;;;2.60;;
5058;SDS011;2548;52.050;11.036;2023-09-19T06:48:05;4.47;;;2.47;;
5058;SDS011;2548;52.050;11.036;2023-09-19T06:50:32;5.63;;;2.50;;
5058;SDS011;2548;52.050;11.036;2023-09-19T06:53:00;10.63;;;3.38;;
5058;SDS011;2548;52.050;11.036;2023-09-19T06:55:29;7.53;;;2.67;;
5058;SDS011;2548;52.050;11.036;2023-09-19T06:57:57;8.15;;;2.88;;
5058;SDS011;2548;52.050;11.036;2023-09-19T07:00:24;8.45;;;2.55;;
5058;SDS011;2548;52.050;11.036;2023-09-19T07:02:57;5.75;;;3.17;;
5058;SDS011;2548;52.050;11.036;2023-09-19T07:05:26;11.82;;;2.25;;
5058;SDS011;2548;52.050;11.036;2023-09-19T07:07:54;6.65;;;3.33;;
5058;SDS011;2548;52.050;11.036;2023-09-19T07:10:24;6.60;;;2.85;;
5058;SDS011;2548;52.050;11.036;2023-09-19T07:12:57;7.07;;;2.58;;
5058;SDS011;2548;52.050;11.036;2023-09-19T07:15:25;5.18;;;2.47;;
5058;SDS011;2548;52.050;11.036;2023-09-19T07:17:53;12.02;;;3.22;;
5058;SDS011;2548;52.050;11.036;2023-09-19T07:20:21;6.60;;;2.40;;
5058;SDS011;2548;52.050;11.036;2023-09-19T07:22:51;8.45;;;2.90;;
5058;SDS011;2548;52.050;11.036;2023-09-19T07:25:20;6.28;;;1.75;;
5058;SDS011;2548;52.050;11.036;2023-09-19T07:27:48;8.13;;;2.42;;
5058;SDS011;2548;52.050;11.036;2023-09-19T07:30:18;9.98;;;2.67;;
5058;SDS011;2548;52.050;11.036;2023-09-19T07:32:45;5.10;;;2.38;;
5058;SDS011;2548;52.050;11.036;2023-09-19T07:35:13;12.48;;;2.70;;
5058;SDS011;2548;52.050;11.036;2023-09-19T07:37:40;15.38;;;3.00;;
5058;SDS011;2548;52.050;11.036;2023-09-19T07:40:08;12.75;;;3.25;;
5058;SDS011;2548;52.050;11.036;2023-09-19T07:42:37;8.15;;;3.28;;
5058;SDS011;2548;52.050;11.036;2023-09-19T07:45:06;5.53;;;2.55;;
5058;SDS011;2548;52.050;11.036;2023-09-19T07:47:36;8.63;;;2.75;;
5058;SDS011;2548;52.050;11.036;2023-09-19T07:50:04;8.97;;;3.30;;
5058;SDS011;2548;52.050;11.036;2023-09-19T07:52:33;7.35;;;2.60;;
5058;SDS011;2548;52.050;11.036;2023-09-19T07:55:00;13.57;;;2.90;;
5058;SDS011;2548;52.050;11.036;2023-09-19T07:57:32;8.20;;;3.47;;
5058;SDS011;2548;52.050;11.036;2023-09-19T08:00:00;9.18;;;2.40;;
5058;SDS011;2548;52.050;11.036;2023-09-19T08:02:38;7.13;;;2.55;;
5058;SDS011;2548;52.050;11.036;2023-09-19T08:05:07;10.13;;;3.08;;
5058;SDS011;2548;52.050;11.036;2023-09-19T08:07:37;6.13;;;2.50;;
5058;SDS011;2548;52.050;11.036;2023-09-19T08:10:05;12.93;;;2.97;;
5058;SDS011;2548;52.050;11.036;2023-09-19T08:12:38;8.80;;;2.55;;
5058;SDS011;2548;52.050;11.036;2023-09-19T08:15:12;8.68;;;2.30;;
5058;SDS011;2548;52.050;11.036;2023-09-19T08:17:41;11.77;;;3.07;;
5058;SDS011;2548;52.050;11.036;2023-09-19T08:20:09;3.83;;;1.97;;
5058;SDS011;2548;52.050;11.036;2023-09-19T08:22:43;9.43;;;2.03;;
5058;SDS011;2548;52.050;11.036;2023-09-19T08:25:13;12.55;;;2.88;;
5058;SDS011;2548;52.050;11.036;2023-09-19T08:27:43;3.93;;;2.43;;
5058;SDS011;2548;52.050;11.036;2023-09-19T08:30:14;3.53;;;2.10;;
5058;SDS011;2548;52.050;11.036;2023-09-19T08:32:45;11.43;;;2.37;;
5058;SDS011;2548;52.050;11.036;2023-09-19T08:35:13;5.90;;;2.30;;
5058;SDS011;2548;52.050;11.036;2023-09-19T08:37:41;7.25;;;2.45;;
5058;SDS011;2548;52.050;11.036;2023-09-19T08:40:11;11.93;;;3.03;;
5058;SDS011;2548;52.050;11.036;2023-09-19T08:42:48;10.27;;;3.23;;
5058;SDS011;2548;52.050;11.036;2023-09-19T08:45:16;8.93;;;2.40;;
5058;SDS011;2548;52.050;11.036;2023-09-19T08:47:47;10.10;;;2.80;;
5058;SDS011;2548;52.050;11.036;2023-09-19T08:50:24;7.80;;;2.35;;
5058;SDS011;2548;52.050;11.036;2023-09-19T08:52:55;7.35;;;2.38;;
5058;SDS011;2548;52.050;11.036;2023-09-19T08:55:23;5.20;;;1.98;;
5058;SDS011;2548;52.050;11.036;2023-09-19T08:57:59;7.13;;;2.10;;
5058;SDS011;2548;52.050;11.036;2023-09-19T09:00:37;4.18;;;1.95;;
5058;SDS011;2548;52.050;11.036;2023-09-19T09:03:14;5.90;;;2.30;;
5058;SDS011;2548;52.050;11.036;2023-09-19T09:05:46;5.10;;;1.90;;
5058;SDS011;2548;52.050;11.036;2023-09-19T09:08:18;5.10;;;2.00;;
5058;SDS011;2548;52.050;11.036;2023-09-19T09:10:50;7.37;;;2.60;;
5058;SDS011;2548;52.050;11.036;2023-09-19T09:13:20;4.80;;;1.97;;
5058;SDS011;2548;52.050;11.036;2023-09-19T09:15:50;10.63;;;3.47;;
5058;SDS011;2548;52.050;11.036;2023-09-19T09:18:26;10.60;;;2.47;;
5058;SDS011;2548;52.050;11.036;2023-09-19T09:20:57;11.03;;;2.80;;
5058;SDS011;2548;52.050;11.036;2023-09-19T09:23:26;7.70;;;2.60;;
5058;SDS011;2548;52.050;11.036;2023-09-19T09:26:00;6.17;;;2.40;;
5058;SDS011;2548;52.050;11.036;2023-09-19T09:28:33;5.30;;;2.35;;
5058;SDS011;2548;52.050;11.036;2023-09-19T09:31:12;2.67;;;1.63;;
5058;SDS011;2548;52.050;11.036;2023-09-19T09:33:56;4.57;;;2.10;;
5058;SDS011;2548;52.050;11.036;2023-09-19T09:36:38;5.67;;;1.87;;
5058;SDS011;2548;52.050;11.036;2023-09-19T09:39:08;4.10;;;2.20;;
5058;SDS011;2548;52.050;11.036;2023-09-19T09:41:46;4.82;;;2.55;;
5058;SDS011;2548;52.050;11.036;2023-09-19T09:44:18;5.65;;;2.60;;
5058;SDS011;2548;52.050;11.036;2023-09-19T09:46:48;8.63;;;1.80;;
5058;SDS011;2548;52.050;11.036;2023-09-19T09:49:49;5.60;;;1.93;;
5058;SDS011;2548;52.050;11.036;2023-09-19T09:52:46;6.47;;;2.43;;
5058;SDS011;2548;52.050;11.036;2023-09-19T09:55:20;7.50;;;2.20;;
5058;SDS011;2548;52.050;11.036;2023-09-19T09:57:55;4.80;;;2.00;;
5058;SDS011;2548;52.050;11.036;2023-09-19T10:00:53;12.60;;;1.90;;
5058;SDS011;2548;52.050;11.036;2023-09-19T10:03:36;8.47;;;2.47;;
5058;SDS011;2548;52.050;11.036;2023-09-19T10:09:13;5.90;;;2.80;;
5058;SDS011;2548;52.050;11.036;2023-09-19T10:11:47;6.20;;;2.20;;
5058;SDS011;2548;52.050;11.036;2023-09-19T10:14:24;9.80;;;2.30;;
5058;SDS011;2548;52.050;11.036;2023-09-19T10:16:58;5.23;;;2.20;;
5058;SDS011;2548;52.050;11.036;2023-09-19T10:19:29;8.90;;;2.20;;
5058;SDS011;2548;52.050;11.036;2023-09-19T10:22:23;9.20;;;2.60;;
5058;SDS011;2548;52.050;11.036;2023-09-19T10:24:57;4.63;;;2.27;;
5058;SDS011;2548;52.050;11.036;2023-09-19T10:27:26;9.02;;;2.35;;
5058;SDS011;2548;52.050;11.036;2023-09-19T10:30:04;4.23;;;2.50;;
5058;SDS011;2548;52.050;11.036;2023-09-19T10:32:35;6.27;;;2.30;;
5058;SDS011;2548;52.050;11.036;2023-09-19T10:35:12;5.83;;;2.93;;
5058;SDS011;2548;52.050;11.036;2023-09-19T10:37:54;5.10;;;2.20;;
5058;SDS011;2548;52.050;11.036;2023-09-19T10:40:32;3.57;;;1.93;;
5058;SDS011;2548;52.050;11.036;2023-09-19T10:43:11;7.63;;;2.30;;
5058;SDS011;2548;52.050;11.036;2023-09-19T10:45:47;5.50;;;2.60;;
5058;SDS011;2548;52.050;11.036;2023-09-19T10:48:20;6.30;;;2.37;;
5058;SDS011;2548;52.050;11.036;2023-09-19T10:51:06;18.67;;;2.67;;
5058;SDS011;2548;52.050;11.036;2023-09-19T10:56:29;9.43;;;3.17;;
5058;SDS011;2548;52.050;11.036;2023-09-19T10:59:06;5.80;;;2.03;;
5058;SDS011;2548;52.050;11.036;2023-09-19T11:01:42;8.83;;;3.10;;
5058;SDS011;2548;52.050;11.036;2023-09-19T11:04:26;9.43;;;2.30;;
5058;SDS011;2548;52.050;11.036;2023-09-19T11:07:08;9.23;;;2.03;;
5058;SDS011;2548;52.050;11.036;2023-09-19T11:09:53;3.23;;;1.97;;
5058;SDS011;2548;52.050;11.036;2023-09-19T11:21:41;3.27;;;2.47;;
5058;SDS011;2548;52.050;11.036;2023-09-19T11:24:29;5.30;;;2.40;;
5058;SDS011;2548;52.050;11.036;2023-09-19T11:27:14;4.47;;;2.27;;
5058;SDS011;2548;52.050;11.036;2023-09-19T11:29:51;4.57;;;2.30;;
5058;SDS011;2548;52.050;11.036;2023-09-19T11:39:01;8.43;;;2.70;;
5058;SDS011;2548;52.050;11.036;2023-09-19T11:41:49;6.40;;;2.67;;
5058;SDS011;2548;52.050;11.036;2023-09-19T11:44:42;4.07;;;2.20;;
5058;SDS011;2548;52.050;11.036;2023-09-19T11:47:11;6.20;;;2.67;;
5058;SDS011;2548;52.050;11.036;2023-09-19T11:49:41;12.33;;;3.20;;
5058;SDS011;2548;52.050;11.036;2023-09-19T11:52:21;5.30;;;2.83;;
5058;SDS011;2548;52.050;11.036;2023-09-19T11:54:57;11.30;;;2.97;;
5058;SDS011;2548;52.050;11.036;2023-09-19T11:57:32;5.10;;;2.73;;
5058;SDS011;2548;52.050;11.036;2023-09-19T12:00:11;15.07;;;3.37;;
5058;SDS011;2548;52.050;11.036;2023-09-19T12:02:47;9.17;;;2.50;;
5058;SDS011;2548;52.050;11.036;2023-09-19T12:05:27;9.60;;;3.10;;
5058;SDS011;2548;52.050;11.036;2023-09-19T12:08:11;9.43;;;2.50;;
5058;SDS011;2548;52.050;11.036;2023-09-19T12:10:45;9.20;;;2.30;;
5058;SDS011;2548;52.050;11.036;2023-09-19T12:13:16;9.20;;;2.70;;
5058;SDS011;2548;52.050;11.036;2023-09-19T12:21:56;6.60;;;2.90;;
5058;SDS011;2548;52.050;11.036;2023-09-19T12:24:43;6.80;;;2.83;;
5058;SDS011;2548;52.050;11.036;2023-09-19T12:27:15;3.97;;;2.40;;
5058;SDS011;2548;52.050;11.036;2023-09-19T12:29:45;4.97;;;1.90;;
5058;SDS011;2548;52.050;11.036;2023-09-19T12:35:34;14.83;;;2.67;;
5058;SDS011;2548;52.050;11.036;2023-09-19T12:38:30;7.20;;;2.27;;
5058;SDS011;2548;52.050;11.036;2023-09-19T12:41:04;5.27;;;2.40;;
5058;SDS011;2548;52.050;11.036;2023-09-19T12:43:36;8.30;;;2.87;;
5058;SDS011;2548;52.050;11.036;2023-09-19T12:46:09;8.07;;;3.17;;
5058;SDS011;2548;52.050;11.036;2023-09-19T12:51:54;11.20;;;2.83;;
5058;SDS011;2548;52.050;11.036;2023-09-19T12:54:38;7.93;;;2.40;;
5058;SDS011;2548;52.050;11.036;2023-09-19T12:57:23;5.90;;;2.70;;
5058;SDS011;2548;52.050;11.036;2023-09-19T12:59:52;3.70;;;2.63;;
5058;SDS011;2548;52.050;11.036;2023-09-19T13:05:58;5.47;;;2.53;;
5058;SDS011;2548;52.050;11.036;2023-09-19T13:08:31;5.00;;;3.27;;
5058;SDS011;2548;52.050;11.036;2023-09-19T13:11:35;4.50;;;2.70;;
5058;SDS011;2548;52.050;11.036;2023-09-19T13:14:14;6.27;;;2.93;;
5058;SDS011;2548;52.050;11.036;2023-09-19T13:16:55;8.50;;;2.90;;
5058;SDS011;2548;52.050;11.036;2023-09-19T13:19:48;8.67;;;3.07;;
5058;SDS011;2548;52.050;11.036;2023-09-19T13:25:25;6.57;;;2.80;;
5058;SDS011;2548;52.050;11.036;2023-09-19T13:28:01;7.00;;;2.70;;
5058;SDS011;2548;52.050;11.036;2023-09-19T13:30:36;6.87;;;2.90;;
5058;SDS011;2548;52.050;11.036;2023-09-19T13:33:18;9.27;;;2.90;;
5058;SDS011;2548;52.050;11.036;2023-09-19T13:36:02;6.47;;;2.97;;
5058;SDS011;2548;52.050;11.036;2023-09-19T13:38:45;8.60;;;3.43;;
5058;SDS011;2548;52.050;11.036;2023-09-19T13:41:18;5.63;;;3.03;;
5058;SDS011;2548;52.050;11.036;2023-09-19T13:43:51;8.87;;;3.37;;
5058;SDS011;2548;52.050;11.036;2023-09-19T13:46:26;7.53;;;3.37;;
5058;SDS011;2548;52.050;11.036;2023-09-19T13:49:09;5.53;;;2.83;;
5058;SDS011;2548;52.050;11.036;2023-09-19T13:51:39;5.80;;;2.80;;
5058;SDS011;2548;52.050;11.036;2023-09-19T13:54:23;9.30;;;3.13;;
5058;SDS011;2548;52.050;11.036;2023-09-19T13:56:58;10.57;;;3.43;;
5058;SDS011;2548;52.050;11.036;2023-09-19T13:59:41;7.73;;;3.17;;
5058;SDS011;2548;52.050;11.036;2023-09-19T14:02:14;5.97;;;2.90;;
5058;SDS011;2548;52.050;11.036;2023-09-19T14:04:51;4.60;;;2.63;;
5058;SDS011;2548;52.050;11.036;2023-09-19T14:07:22;14.73;;;3.23;;
5058;SDS011;2548;52.050;11.036;2023-09-19T14:09:57;11.27;;;3.07;;
5058;SDS011;2548;52.050;11.036;2023-09-19T14:12:25;8.00;;;3.33;;
5058;SDS011;2548;52.050;11.036;2023-09-19T14:14:55;4.57;;;2.80;;
5058;SDS011;2548;52.050;11.036;2023-09-19T14:17:41;14.73;;;2.63;;
5058;SDS011;2548;52.050;11.036;2023-09-19T14:20:20;5.87;;;3.13;;
5058;SDS011;2548;52.050;11.036;2023-09-19T14:22:49;6.87;;;3.57;;
5058;SDS011;2548;52.050;11.036;2023-09-19T14:25:20;5.87;;;3.07;;
5058;SDS011;2548;52.050;11.036;2023-09-19T14:27:51;3.13;;;2.10;;
5058;SDS011;2548;52.050;11.036;2023-09-19T14:30:23;8.10;;;3.03;;
5058;SDS011;2548;52.050;11.036;2023-09-19T14:32:53;8.33;;;2.87;;
5058;SDS011;2548;52.050;11.036;2023-09-19T14:35:25;6.10;;;3.23;;
5058;SDS011;2548;52.050;11.036;2023-09-19T14:37:58;17.77;;;2.90;;
5058;SDS011;2548;52.050;11.036;2023-09-19T14:40:32;5.93;;;2.70;;
5058;SDS011;2548;52.050;11.036;2023-09-19T14:43:08;5.33;;;2.33;;
5058;SDS011;2548;52.050;11.036;2023-09-19T14:45:43;7.47;;;2.63;;
5058;SDS011;2548;52.050;11.036;2023-09-19T14:48:11;6.60;;;3.13;;
5058;SDS011;2548;52.050;11.036;2023-09-19T14:50:40;6.23;;;2.90;;
5058;SDS011;2548;52.050;11.036;2023-09-19T14:53:14;3.63;;;3.33;;
5058;SDS011;2548;52.050;11.036;2023-09-19T14:55:46;4.37;;;3.07;;
5058;SDS011;2548;52.050;11.036;2023-09-19T14:58:20;17.97;;;3.77;;
5058;SDS011;2548;52.050;11.036;2023-09-19T15:00:50;13.33;;;2.93;;
5058;SDS011;2548;52.050;11.036;2023-09-19T15:03:40;9.83;;;3.53;;
5058;SDS011;2548;52.050;11.036;2023-09-19T15:06:11;7.83;;;3.00;;
5058;SDS011;2548;52.050;11.036;2023-09-19T15:08:45;13.90;;;2.70;;
5058;SDS011;2548;52.050;11.036;2023-09-19T15:11:20;9.23;;;3.73;;
5058;SDS011;2548;52.050;11.036;2023-09-19T15:13:51;4.43;;;2.43;;
5058;SDS011;2548;52.050;11.036;2023-09-19T15:16:20;7.43;;;2.60;;
5058;SDS011;2548;52.050;11.036;2023-09-19T15:18:53;3.30;;;2.60;;
5058;SDS011;2548;52.050;11.036;2023-09-19T15:21:31;8.27;;;3.03;;
5058;SDS011;2548;52.050;11.036;2023-09-19T15:24:00;5.10;;;2.63;;
5058;SDS011;2548;52.050;11.036;2023-09-19T15:26:41;5.30;;;2.43;;
5058;SDS011;2548;52.050;11.036;2023-09-19T15:29:14;7.77;;;2.50;;
5058;SDS011;2548;52.050;11.036;2023-09-19T15:31:41;8.37;;;2.80;;
5058;SDS011;2548;52.050;11.036;2023-09-19T15:34:14;5.37;;;2.13;;
5058;SDS011;2548;52.050;11.036;2023-09-19T15:36:44;4.90;;;3.10;;
5058;SDS011;2548;52.050;11.036;2023-09-19T15:39:17;6.20;;;2.13;;
5058;SDS011;2548;52.050;11.036;2023-09-19T15:42:08;10.00;;;2.30;;
5058;SDS011;2548;52.050;11.036;2023-09-19T15:44:50;6.37;;;2.40;;
5058;SDS011;2548;52.050;11.036;2023-09-19T15:47:22;5.30;;;2.40;;
5058;SDS011;2548;52.050;11.036;2023-09-19T15:49:53;5.40;;;2.30;;
5058;SDS011;2548;52.050;11.036;2023-09-19T15:52:22;3.77;;;1.80;;
5058;SDS011;2548;52.050;11.036;2023-09-19T15:54:53;9.43;;;2.53;;
5058;SDS011;2548;52.050;11.036;2023-09-19T15:57:28;10.23;;;2.13;;
5058;SDS011;2548;52.050;11.036;2023-09-19T16:00:01;7.07;;;2.13;;
5058;SDS011;2548;52.050;11.036;2023-09-19T16:02:40;7.27;;;1.60;;
5058;SDS011;2548;52.050;11.036;2023-09-19T16:05:11;5.10;;;2.20;;
5058;SDS011;2548;52.050;11.036;2023-09-19T16:07:43;4.10;;;1.87;;
5058;SDS011;2548;52.050;11.036;2023-09-19T16:10:16;3.77;;;2.00;;
5058;SDS011;2548;52.050;11.036;2023-09-19T16:12:57;7.00;;;2.10;;
5058;SDS011;2548;52.050;11.036;2023-09-19T16:15:42;8.77;;;2.57;;
5058;SDS011;2548;52.050;11.036;2023-09-19T16:18:13;2.00;;;1.57;;
5058;SDS011;2548;52.050;11.036;2023-09-19T16:20:44;5.50;;;2.10;;